createdAt,value
2018-04-12T00:02:25.837Z,13.27
2018-04-12T00:04:53.348Z,12.87
2018-04-12T00:07:20.859Z,12.50
2018-04-12T00:09:48.371Z,12.87
2018-04-12T00:12:15.884Z,12.27
2018-04-12T00:14:43.433Z,11.90
2018-04-12T00:17:10.943Z,13.00
2018-04-12T00:19:38.524Z,11.37
2018-04-12T00:22:06.106Z,11.27
2018-04-12T00:24:33.617Z,11.97
2018-04-12T00:27:01.165Z,11.37
2018-04-12T00:29:28.724Z,11.70
2018-04-12T00:31:56.268Z,11.57
2018-04-12T00:34:23.813Z,12.60
2018-04-12T00:36:51.335Z,12.20
2018-04-12T00:39:18.847Z,11.77
2018-04-12T00:41:46.430Z,11.60
2018-04-12T00:44:13.945Z,11.80
2018-04-12T00:46:41.459Z,12.67
2018-04-12T00:49:09.038Z,12.43
2018-04-12T00:51:36.557Z,11.93
2018-04-12T00:54:06.037Z,12.77
2018-04-12T00:56:33.560Z,13.03
2018-04-12T00:59:01.101Z,12.30
2018-04-12T01:01:28.659Z,11.97
2018-04-12T01:03:56.197Z,12.27
2018-04-12T01:06:23.741Z,11.67
2018-04-12T01:08:51.264Z,12.80
2018-04-12T01:11:18.845Z,12.77
2018-04-12T01:13:46.395Z,13.83
2018-04-12T01:16:13.904Z,13.63
2018-04-12T01:18:41.459Z,12.70
2018-04-12T01:21:08.963Z,12.90
2018-04-12T01:23:36.463Z,12.17
2018-04-12T01:26:04.004Z,12.77
2018-04-12T01:28:31.597Z,12.97
2018-04-12T01:30:59.144Z,12.00
2018-04-12T01:33:26.652Z,11.90
2018-04-12T01:35:54.191Z,12.07
2018-04-12T01:38:21.740Z,11.80
2018-04-12T01:40:49.257Z,12.20
2018-04-12T01:43:16.764Z,12.20
2018-04-12T01:45:44.270Z,12.27
2018-04-12T01:48:11.803Z,12.23
2018-04-12T01:50:39.390Z,11.90
2018-04-12T01:53:06.896Z,12.90
2018-04-12T01:55:34.459Z,12.90
2018-04-12T01:58:01.973Z,11.80
2018-04-12T02:00:29.526Z,12.37
2018-04-12T02:02:57.036Z,12.47
2018-04-12T02:05:24.539Z,13.10
2018-04-12T02:07:52.088Z,13.43
2018-04-12T02:10:19.674Z,13.40
2018-04-12T02:12:47.217Z,12.70
2018-04-12T02:15:14.738Z,12.83
2018-04-12T02:17:42.296Z,13.33
2018-04-12T02:20:09.803Z,12.60
2018-04-12T02:22:37.316Z,12.53
2018-04-12T02:25:04.818Z,12.07
2018-04-12T02:27:32.323Z,13.57
2018-04-12T02:29:59.834Z,15.03
2018-04-12T02:32:27.379Z,16.93
2018-04-12T02:34:54.919Z,17.50
2018-04-12T02:37:22.428Z,15.20
2018-04-12T02:39:49.981Z,14.53
2018-04-12T02:42:17.482Z,13.70
2018-04-12T02:44:44.991Z,14.47
2018-04-12T02:47:12.542Z,14.07
2018-04-12T02:49:40.064Z,14.07
2018-04-12T02:52:07.616Z,15.13
2018-04-12T02:54:35.136Z,15.00
2018-04-12T02:57:02.681Z,14.00
2018-04-12T02:59:30.188Z,14.43
2018-04-12T03:01:57.909Z,14.07
2018-04-12T03:04:25.422Z,14.07
2018-04-12T03:06:52.988Z,15.80
2018-04-12T03:09:20.586Z,15.23
2018-04-12T03:11:48.093Z,14.13
2018-04-12T03:14:15.597Z,15.13
2018-04-12T03:16:43.140Z,16.10
2018-04-12T03:19:10.648Z,15.70
2018-04-12T03:21:38.170Z,16.10
2018-04-12T03:24:05.671Z,14.93
2018-04-12T03:26:33.220Z,15.90
2018-04-12T03:29:00.722Z,16.27
2018-04-12T03:31:28.274Z,16.00
2018-04-12T03:33:55.787Z,17.30
2018-04-12T03:36:23.297Z,16.03
2018-04-12T03:38:50.842Z,15.47
2018-04-12T03:41:18.352Z,15.33
2018-04-12T03:43:45.910Z,15.43
2018-04-12T03:46:13.465Z,14.97
2018-04-12T03:48:41.035Z,15.90
2018-04-12T03:51:08.502Z,15.40
2018-04-12T03:53:36.011Z,15.60
2018-04-12T03:56:03.525Z,15.90
2018-04-12T03:58:31.068Z,16.53
2018-04-12T04:00:58.620Z,16.33
2018-04-12T04:03:26.135Z,15.00
2018-04-12T04:05:53.643Z,15.57
2018-04-12T04:08:21.147Z,16.83
2018-04-12T04:10:48.659Z,16.90
2018-04-12T04:13:16.202Z,17.67
2018-04-12T04:15:55.411Z,18.23
2018-04-12T04:18:34.707Z,21.07
2018-04-12T04:21:09.882Z,21.00
2018-04-12T04:23:37.391Z,19.47
2018-04-12T04:26:04.736Z,21.50
2018-04-12T04:28:32.275Z,20.43
2018-04-12T04:30:59.811Z,20.10
2018-04-12T04:33:27.315Z,21.53
2018-04-12T04:35:54.975Z,18.20
2018-04-12T04:38:22.475Z,19.23
2018-04-12T04:40:50.040Z,19.70
2018-04-12T04:43:17.543Z,19.23
2018-04-12T04:45:45.057Z,18.33
2018-04-12T04:48:12.575Z,18.80
2018-04-12T04:50:40.079Z,18.60
2018-04-12T04:53:07.646Z,18.43
2018-04-12T04:55:35.151Z,16.77
2018-04-12T04:58:02.705Z,17.60
2018-04-12T05:00:30.255Z,19.17
2018-04-12T05:02:57.763Z,17.03
2018-04-12T05:05:25.280Z,16.57
2018-04-12T05:07:52.794Z,15.93
2018-04-12T05:10:20.405Z,15.23
2018-04-12T05:12:47.966Z,15.47
2018-04-12T05:15:15.511Z,15.50
2018-04-12T05:17:43.075Z,16.47
2018-04-12T05:20:10.649Z,19.97
2018-04-12T05:22:38.212Z,21.53
2018-04-12T05:25:05.721Z,22.27
2018-04-12T05:27:34.141Z,20.33
2018-04-12T05:30:01.662Z,22.17
2018-04-12T05:32:29.207Z,20.87
2018-04-12T05:34:56.750Z,20.33
2018-04-12T05:37:24.295Z,22.53
2018-04-12T05:39:51.806Z,22.47
2018-04-12T05:42:19.363Z,22.43
2018-04-12T05:44:46.872Z,22.30
2018-04-12T05:47:14.372Z,24.00
2018-04-12T05:49:41.898Z,21.07
2018-04-12T05:52:09.492Z,19.87
2018-04-12T05:54:37.006Z,20.77
2018-04-12T05:57:04.551Z,19.47
2018-04-12T05:59:32.056Z,18.47
2018-04-12T06:01:59.614Z,17.07
2018-04-12T06:04:27.119Z,17.30
2018-04-12T06:06:54.674Z,20.77
2018-04-12T06:09:22.237Z,18.13
2018-04-12T06:11:49.751Z,18.00
2018-04-12T06:14:17.319Z,18.13
2018-04-12T06:16:44.876Z,17.00
2018-04-12T06:19:12.382Z,17.90
2018-04-12T06:21:39.901Z,17.93
2018-04-12T06:24:07.462Z,18.03
2018-04-12T06:26:34.978Z,19.60
2018-04-12T06:29:02.491Z,18.10
2018-04-12T06:31:30.034Z,16.97
2018-04-12T06:33:57.535Z,17.50
2018-04-12T06:36:25.046Z,18.17
2018-04-12T06:38:52.596Z,18.23
2018-04-12T06:41:20.111Z,19.67
2018-04-12T06:43:47.671Z,20.47
2018-04-12T06:46:15.238Z,18.00
2018-04-12T06:48:42.744Z,18.97
2018-04-12T06:51:10.353Z,19.17
2018-04-12T06:56:19.940Z,18.63
2018-04-12T06:58:47.455Z,19.43
2018-04-12T07:01:14.994Z,19.60
2018-04-12T07:03:42.539Z,19.10
2018-04-12T07:06:10.049Z,19.00
2018-04-12T07:08:37.551Z,17.93
2018-04-12T07:11:05.081Z,19.80
2018-04-12T07:13:32.644Z,19.37
2018-04-12T07:16:00.224Z,20.33
2018-04-12T07:18:27.739Z,20.13
2018-04-12T07:20:55.279Z,20.27
2018-04-12T07:23:22.858Z,20.73
2018-04-12T07:25:50.370Z,20.75
2018-04-12T07:28:17.885Z,22.40
2018-04-12T07:30:45.450Z,21.58
2018-04-12T07:33:12.968Z,21.48
2018-04-12T07:35:40.492Z,21.50
2018-04-12T07:38:08.004Z,21.50
2018-04-12T07:40:35.536Z,21.20
2018-04-12T07:43:03.050Z,21.50
2018-04-12T07:45:30.644Z,23.15
2018-04-12T07:47:58.158Z,23.90
2018-04-12T07:50:25.668Z,22.37
2018-04-12T07:52:53.268Z,21.65
2018-04-12T07:55:20.775Z,21.70
2018-04-12T07:57:48.294Z,22.27
2018-04-12T08:00:15.858Z,22.73
2018-04-12T08:02:43.366Z,23.85
2018-04-12T08:05:10.914Z,22.48
2018-04-12T08:07:39.050Z,24.50
2018-04-12T08:10:06.599Z,25.73
2018-04-12T08:12:34.159Z,21.50
2018-04-12T08:15:01.675Z,21.65
2018-04-12T08:17:29.193Z,22.05
2018-04-12T08:19:56.752Z,22.62
2018-04-12T08:22:24.323Z,21.15
2018-04-12T08:24:51.869Z,20.70
2018-04-12T08:27:19.375Z,19.55
2018-04-12T08:29:46.928Z,20.10
2018-04-12T08:32:14.488Z,19.20
2018-04-12T08:34:42.012Z,18.55
2018-04-12T08:37:09.532Z,15.68
2018-04-12T08:39:37.110Z,14.68
2018-04-12T08:42:04.665Z,13.85
2018-04-12T08:44:32.184Z,17.17
2018-04-12T08:46:59.733Z,14.52
2018-04-12T08:49:27.248Z,13.73
2018-04-12T08:51:54.790Z,13.48
2018-04-12T08:54:22.329Z,13.00
2018-04-12T08:56:49.842Z,13.27
2018-04-12T08:59:19.935Z,13.60
2018-04-12T09:01:47.497Z,12.93
2018-04-12T09:04:15.146Z,13.43
2018-04-12T09:06:42.661Z,13.30
2018-04-12T09:09:10.170Z,14.15
2018-04-12T09:11:37.724Z,13.35
2018-04-12T09:14:05.231Z,12.45
2018-04-12T09:16:32.771Z,12.07
2018-04-12T09:19:00.283Z,13.05
2018-04-12T09:21:27.791Z,12.65
2018-04-12T09:23:55.439Z,12.63
2018-04-12T09:26:22.991Z,10.95
2018-04-12T09:28:50.500Z,12.13
2018-04-12T09:31:18.055Z,11.60
2018-04-12T09:33:45.570Z,12.00
2018-04-12T09:36:13.124Z,11.80
2018-04-12T09:38:40.652Z,11.10
2018-04-12T09:41:08.516Z,12.90
2018-04-12T09:43:36.028Z,10.40
2018-04-12T09:46:03.595Z,10.32
2018-04-12T09:48:31.140Z,10.13
2018-04-12T09:50:58.648Z,10.00
2018-04-12T09:53:26.195Z,10.05
2018-04-12T09:55:53.687Z,10.65
2018-04-12T09:58:21.277Z,10.00
2018-04-12T10:00:54.213Z,8.30
2018-04-12T10:03:21.824Z,8.90
2018-04-12T10:05:54.934Z,11.43
2018-04-12T10:08:29.835Z,8.27
2018-04-12T10:11:06.187Z,9.63
2018-04-12T10:13:33.699Z,8.32
2018-04-12T10:16:01.228Z,8.25
2018-04-12T10:18:28.734Z,9.63
2018-04-12T10:20:56.254Z,7.97
2018-04-12T10:23:23.798Z,7.80
2018-04-12T10:25:51.315Z,8.43
2018-04-12T10:28:18.821Z,8.10
2018-04-12T10:30:47.705Z,6.95
2018-04-12T10:33:15.216Z,6.95
2018-04-12T10:35:42.759Z,7.45
2018-04-12T10:38:10.277Z,7.60
2018-04-12T10:40:37.779Z,7.72
2018-04-12T10:43:05.285Z,7.43
2018-04-12T10:45:32.856Z,7.28
2018-04-12T10:48:00.365Z,8.25
2018-04-12T10:50:27.886Z,9.02
2018-04-12T10:52:55.395Z,8.30
2018-04-12T10:55:22.940Z,8.20
2018-04-12T10:57:50.486Z,8.38
2018-04-12T11:00:18.046Z,7.90
2018-04-12T11:02:45.552Z,8.93
2018-04-12T11:05:13.058Z,7.75
2018-04-12T11:07:40.554Z,7.60
2018-04-12T11:10:08.106Z,8.02
2018-04-12T11:12:35.612Z,7.53
2018-04-12T11:15:03.115Z,6.60
2018-04-12T11:17:30.671Z,8.13
2018-04-12T11:19:58.171Z,7.55
2018-04-12T11:22:25.676Z,7.82
2018-04-12T11:24:53.219Z,7.22
2018-04-12T11:27:20.771Z,7.65
2018-04-12T11:29:48.281Z,7.60
2018-04-12T11:32:15.826Z,6.60
2018-04-12T11:34:43.340Z,7.00
2018-04-12T11:37:10.857Z,7.20
2018-04-12T11:39:38.365Z,7.00
2018-04-12T11:42:05.871Z,7.35
2018-04-12T11:44:33.478Z,7.18
2018-04-12T11:47:00.986Z,7.05
2018-04-12T11:49:28.553Z,6.57
2018-04-12T11:51:56.090Z,6.37
2018-04-12T11:54:23.635Z,6.97
2018-04-12T11:56:52.100Z,7.37
2018-04-12T11:59:19.646Z,6.72
2018-04-12T12:01:47.189Z,6.72
2018-04-12T12:04:15.508Z,6.70
2018-04-12T12:06:43.063Z,7.55
2018-04-12T12:09:11.412Z,6.45
2018-04-12T12:11:38.944Z,6.85
2018-04-12T12:14:06.447Z,7.10
2018-04-12T12:16:33.997Z,6.72
2018-04-12T12:19:02.794Z,6.43
2018-04-12T12:21:30.308Z,7.00
2018-04-12T12:23:57.874Z,7.18
2018-04-12T12:26:25.379Z,6.93
2018-04-12T12:28:52.966Z,6.47
2018-04-12T12:31:20.480Z,7.00
2018-04-12T12:33:48.005Z,6.07
2018-04-12T12:36:15.558Z,6.55
2018-04-12T12:38:43.064Z,7.20
2018-04-12T12:41:10.631Z,6.40
2018-04-12T12:43:38.190Z,7.43
2018-04-12T12:46:05.694Z,7.55
2018-04-12T12:48:33.201Z,6.45
2018-04-12T12:51:00.702Z,6.95
2018-04-12T12:53:28.219Z,6.65
2018-04-12T12:55:55.794Z,6.32
2018-04-12T12:58:23.335Z,6.93
2018-04-12T13:00:51.731Z,5.68
2018-04-12T13:03:19.268Z,6.28
2018-04-12T13:05:46.788Z,8.48
2018-04-12T13:08:14.290Z,6.10
2018-04-12T13:10:41.794Z,6.18
2018-04-12T13:13:09.340Z,6.97
2018-04-12T13:15:36.846Z,7.27
2018-04-12T13:18:04.369Z,6.77
2018-04-12T13:20:31.875Z,5.80
2018-04-12T13:22:59.385Z,6.40
2018-04-12T13:25:26.972Z,5.50
2018-04-12T13:27:54.496Z,6.50
2018-04-12T13:30:22.039Z,5.73
2018-04-12T13:32:49.540Z,5.60
2018-04-12T13:35:17.052Z,5.97
2018-04-12T13:37:44.592Z,6.17
2018-04-12T13:40:12.099Z,6.43
2018-04-12T13:42:39.607Z,5.83
2018-04-12T13:45:07.119Z,6.10
2018-04-12T13:47:34.668Z,5.87
2018-04-12T13:50:02.163Z,6.30
2018-04-12T13:52:29.711Z,5.87
2018-04-12T13:54:57.290Z,6.20
2018-04-12T13:57:24.809Z,5.80
2018-04-12T13:59:52.316Z,6.10
2018-04-12T14:02:19.855Z,5.43
2018-04-12T14:04:47.384Z,6.50
2018-04-12T14:07:14.899Z,6.10
2018-04-12T14:09:42.401Z,6.03
2018-04-12T14:12:09.937Z,6.47
2018-04-12T14:14:37.461Z,6.10
2018-04-12T14:17:05.332Z,6.50
2018-04-12T14:19:32.829Z,6.53
2018-04-12T14:22:00.344Z,5.57
2018-04-12T14:24:27.859Z,5.67
2018-04-12T14:26:55.613Z,6.53
2018-04-12T14:29:23.160Z,8.17
2018-04-12T14:31:50.678Z,5.93
2018-04-12T14:34:18.232Z,7.63
2018-04-12T14:36:45.784Z,6.17
2018-04-12T14:39:13.288Z,6.13
2018-04-12T14:41:40.848Z,6.87
2018-04-12T14:44:08.371Z,6.00
2018-04-12T14:46:35.920Z,5.73
2018-04-12T14:49:03.419Z,5.50
2018-04-12T14:51:30.929Z,5.73
2018-04-12T14:53:58.488Z,5.67
2018-04-12T14:56:26.103Z,7.63
2018-04-12T14:58:53.614Z,6.20
2018-04-12T15:01:21.163Z,5.87
2018-04-12T15:03:48.705Z,6.37
2018-04-12T15:06:16.207Z,5.73
2018-04-12T15:08:43.743Z,6.37
2018-04-12T15:11:11.228Z,5.83
2018-04-12T15:13:38.777Z,6.73
2018-04-12T15:16:06.316Z,6.93
2018-04-12T15:18:33.815Z,7.30
2018-04-12T15:21:01.360Z,6.53
2018-04-12T15:23:28.859Z,6.63
2018-04-12T15:25:56.416Z,6.27
2018-04-12T15:28:23.931Z,6.60
2018-04-12T15:30:51.480Z,6.17
2018-04-12T15:33:19.017Z,5.87
2018-04-12T15:35:46.521Z,6.30
2018-04-12T15:38:14.076Z,6.10
2018-04-12T15:40:41.589Z,6.40
2018-04-12T15:43:09.098Z,7.00
2018-04-12T15:45:36.658Z,6.70
2018-04-12T15:48:04.172Z,6.10
2018-04-12T15:50:31.715Z,6.93
2018-04-12T15:52:59.223Z,6.87
2018-04-12T15:55:26.742Z,7.20
2018-04-12T15:57:54.289Z,6.97
2018-04-12T16:00:21.837Z,7.50
2018-04-12T16:02:49.385Z,6.87
2018-04-12T16:05:16.891Z,7.03
2018-04-12T16:07:44.448Z,6.97
2018-04-12T16:10:11.960Z,7.30
2018-04-12T16:12:39.469Z,7.17
2018-04-12T16:15:06.985Z,7.60
2018-04-12T16:17:34.537Z,7.07
2018-04-12T16:20:02.045Z,7.07
2018-04-12T16:22:29.590Z,7.63
2018-04-12T16:24:57.088Z,8.70
2018-04-12T16:27:24.643Z,8.10
2018-04-12T16:29:52.444Z,10.27
2018-04-12T16:32:19.983Z,8.00
2018-04-12T16:34:47.524Z,11.47
2018-04-12T16:37:17.695Z,9.13
2018-04-12T16:39:45.201Z,8.10
2018-04-12T16:42:12.714Z,9.57
2018-04-12T16:44:40.210Z,9.70
2018-04-12T16:47:07.731Z,9.63
2018-04-12T16:49:35.288Z,9.77
2018-04-12T16:52:02.826Z,9.93
2018-04-12T16:54:30.339Z,9.77
2018-04-12T16:56:57.908Z,11.07
2018-04-12T16:59:25.465Z,11.50
2018-04-12T17:01:52.971Z,11.57
2018-04-12T17:04:20.483Z,10.60
2018-04-12T17:06:47.990Z,11.13
2018-04-12T17:09:15.531Z,11.43
2018-04-12T17:11:43.046Z,11.80
2018-04-12T17:14:10.570Z,11.10
2018-04-12T17:16:39.035Z,10.80
2018-04-12T17:19:06.579Z,10.27
2018-04-12T17:21:34.091Z,9.97
2018-04-12T17:24:01.612Z,9.17
2018-04-12T17:26:29.122Z,9.27
2018-04-12T17:28:56.668Z,9.60
2018-04-12T17:31:24.180Z,8.70
2018-04-12T17:33:51.692Z,8.93
2018-04-12T17:36:19.234Z,8.33
2018-04-12T17:38:46.738Z,9.00
2018-04-12T17:41:14.251Z,8.43
2018-04-12T17:43:41.763Z,8.47
2018-04-12T17:46:09.268Z,7.30
2018-04-12T17:48:36.817Z,7.43
2018-04-12T17:51:04.323Z,8.37
2018-04-12T17:53:31.845Z,9.27
2018-04-12T17:55:59.364Z,10.20
2018-04-12T17:58:27.506Z,11.67
2018-04-12T18:00:56.252Z,10.70
2018-04-12T18:03:23.765Z,10.80
2018-04-12T18:05:51.321Z,10.07
2018-04-12T18:08:18.858Z,10.53
2018-04-12T18:10:46.371Z,11.13
2018-04-12T18:13:13.892Z,11.90
2018-04-12T18:15:41.436Z,12.10
2018-04-12T18:18:08.940Z,12.20
2018-04-12T18:20:36.505Z,13.63
2018-04-12T18:23:04.007Z,13.20
2018-04-12T18:25:31.517Z,13.30
2018-04-12T18:27:59.038Z,13.93
2018-04-12T18:30:26.543Z,12.37
2018-04-12T18:32:54.046Z,13.17
2018-04-12T18:35:21.565Z,11.93
2018-04-12T18:37:49.089Z,10.90
2018-04-12T18:40:16.634Z,11.47
2018-04-12T18:42:44.179Z,11.30
2018-04-12T18:45:11.691Z,10.67
2018-04-12T18:47:39.815Z,9.63
2018-04-12T18:50:07.336Z,10.77
2018-04-12T18:52:34.892Z,9.87
2018-04-12T18:55:02.457Z,10.10
2018-04-12T18:57:29.972Z,8.97
2018-04-12T18:59:57.483Z,8.23
2018-04-12T19:02:25.080Z,8.50
2018-04-12T19:04:52.630Z,8.33
2018-04-12T19:07:20.190Z,8.93
2018-04-12T19:09:47.689Z,8.80
2018-04-12T19:12:15.200Z,8.03
2018-04-12T19:14:43.516Z,7.60
2018-04-12T19:17:11.032Z,7.87
2018-04-12T19:19:38.572Z,7.57
2018-04-12T19:22:06.100Z,8.10
2018-04-12T19:24:33.647Z,8.17
2018-04-12T19:27:01.190Z,8.00
2018-04-12T19:29:28.704Z,7.57
2018-04-12T19:31:56.264Z,7.80
2018-04-12T19:34:23.766Z,7.33
2018-04-12T19:36:51.303Z,6.77
2018-04-12T19:39:18.865Z,7.17
2018-04-12T19:41:46.407Z,7.40
2018-04-12T19:44:14.828Z,7.00
2018-04-12T19:46:42.396Z,7.97
2018-04-12T19:49:09.900Z,7.33
2018-04-12T19:51:37.443Z,6.97
2018-04-12T19:54:06.216Z,7.27
2018-04-12T19:56:33.727Z,6.40
2018-04-12T19:59:01.276Z,7.13
2018-04-12T20:01:28.840Z,7.33
2018-04-12T20:03:56.372Z,7.20
2018-04-12T20:06:23.915Z,7.47
2018-04-12T20:08:51.465Z,7.30
2018-04-12T20:11:19.747Z,6.50
2018-04-12T20:13:47.362Z,7.00
2018-04-12T20:16:14.844Z,6.37
2018-04-12T20:18:42.636Z,6.17
2018-04-12T20:21:10.140Z,6.77
2018-04-12T20:23:37.703Z,6.43
2018-04-12T20:26:05.207Z,6.27
2018-04-12T20:28:32.756Z,6.47
2018-04-12T20:31:00.295Z,6.67
2018-04-12T20:33:27.828Z,7.13
2018-04-12T20:35:55.361Z,6.30
2018-04-12T20:38:23.764Z,6.53
2018-04-12T20:40:51.269Z,6.80
2018-04-12T20:43:18.784Z,6.70
2018-04-12T20:45:46.300Z,7.00
2018-04-12T20:48:15.345Z,7.53
2018-04-12T20:50:42.851Z,8.23
2018-04-12T20:53:10.361Z,9.60
2018-04-12T20:55:37.890Z,15.20
2018-04-12T20:58:05.396Z,26.20
2018-04-12T21:00:34.159Z,15.97
2018-04-12T21:03:01.704Z,13.00
2018-04-12T21:05:29.219Z,11.73
2018-04-12T21:07:56.739Z,11.60
2018-04-12T21:10:24.280Z,11.63
2018-04-12T21:12:51.833Z,12.43
2018-04-12T21:15:19.338Z,18.93
2018-04-12T21:17:46.900Z,19.83
2018-04-12T21:20:14.411Z,15.00
2018-04-12T21:22:41.922Z,13.90
2018-04-12T21:25:09.457Z,9.80
2018-04-12T21:27:36.954Z,8.73
2018-04-12T21:30:07.457Z,8.70
2018-04-12T21:32:34.988Z,8.47
2018-04-12T21:35:02.522Z,7.20
2018-04-12T21:37:30.031Z,8.30
2018-04-12T21:39:57.833Z,8.13
2018-04-12T21:42:25.347Z,7.93
2018-04-12T21:44:52.893Z,7.43
2018-04-12T21:47:20.429Z,8.33
2018-04-12T21:49:47.935Z,8.67
2018-04-12T21:52:15.448Z,8.87
2018-04-12T21:54:42.952Z,8.43
2018-04-12T21:57:10.465Z,8.73
2018-04-12T21:59:38.015Z,9.17
2018-04-12T22:02:07.031Z,9.43
2018-04-12T22:04:34.560Z,9.37
2018-04-12T22:07:02.077Z,8.77
2018-04-12T22:09:29.630Z,8.83
2018-04-12T22:11:57.134Z,9.00
2018-04-12T22:14:24.645Z,9.17
2018-04-12T22:16:52.163Z,9.13
2018-04-12T22:19:19.663Z,8.90
2018-04-12T22:21:47.160Z,9.10
2018-04-12T22:24:14.673Z,9.13
2018-04-12T22:26:42.182Z,9.03
2018-04-12T22:29:09.687Z,8.90
2018-04-12T22:31:37.200Z,9.50
2018-04-12T22:34:04.712Z,9.10
2018-04-12T22:36:32.263Z,8.87
2018-04-12T22:38:59.776Z,8.87
2018-04-12T22:41:27.333Z,9.23
2018-04-12T22:43:54.849Z,9.80
2018-04-12T22:46:22.391Z,9.50
2018-04-12T22:48:49.895Z,8.73
2018-04-12T22:51:17.448Z,8.83
2018-04-12T22:53:44.956Z,8.87
2018-04-12T22:56:12.495Z,8.57
2018-04-12T22:58:40.039Z,9.03
2018-04-12T23:01:07.595Z,9.10
2018-04-12T23:03:35.105Z,8.93
2018-04-12T23:06:02.683Z,9.03
2018-04-12T23:08:30.196Z,9.07
2018-04-12T23:10:57.713Z,8.23
2018-04-12T23:13:25.219Z,8.30
2018-04-12T23:15:52.734Z,8.23
2018-04-12T23:18:20.285Z,9.50
2018-04-12T23:20:47.839Z,9.17
2018-04-12T23:23:15.382Z,8.87
2018-04-12T23:25:42.889Z,9.37
2018-04-12T23:28:10.396Z,9.20
2018-04-12T23:30:37.961Z,9.97
2018-04-12T23:33:05.475Z,9.17
2018-04-12T23:35:32.979Z,9.37
2018-04-12T23:38:00.525Z,10.20
2018-04-12T23:40:28.027Z,9.33
2018-04-12T23:42:55.564Z,9.77
2018-04-12T23:45:23.160Z,9.50
2018-04-12T23:47:50.660Z,10.53
2018-04-12T23:50:18.167Z,10.77
2018-04-12T23:52:45.679Z,11.03
2018-04-12T23:55:13.215Z,10.80
2018-04-12T23:57:40.768Z,11.47
